Time;durP1;ratioP1;P1;durP2;ratioP2;P2;SDS_P1;SDS_P2;PMS_P1;PMS_P2;Temp;Humidity;BMP_temperature;BMP_pressure;BME280_temperature;BME280_humidity;BME280_pressure;Samples;Min_cycle;Max_cycle;Signal;HPM_P1;HPM_P2
2023/07/22 00:00:43;;;;;;;0.10;0.10;;;16.90;99.90;;;;;;5021041;28;20589;-81
2023/07/22 00:03:09;;;;;;;0.10;0.10;;;16.80;99.90;;;;;;5022326;28;20206;-81
2023/07/22 00:05:34;;;;;;;0.10;0.10;;;16.80;99.90;;;;;;5021866;28;20306;-81
2023/07/22 00:08:00;;;;;;;0.10;0.10;;;16.80;99.90;;;;;;5022188;28;20186;-81
2023/07/22 00:10:25;;;;;;;0.10;0.10;;;17.00;99.90;;;;;;5020015;28;20265;-81
2023/07/22 00:12:51;;;;;;;0.10;0.10;;;17.10;99.90;;;;;;5022018;28;20206;-81
2023/07/22 00:15:17;;;;;;;0.10;0.10;;;17.10;99.90;;;;;;5022403;28;20670;-81
2023/07/22 00:17:43;;;;;;;0.10;0.10;;;17.10;99.90;;;;;;5023272;28;20178;-81
2023/07/22 00:20:11;;;;;;;0.10;0.10;;;17.00;99.90;;;;;;5020886;28;20183;-81
2023/07/22 00:22:40;;;;;;;0.10;0.10;;;16.80;99.90;;;;;;5021112;28;20355;-81
2023/07/22 00:25:09;;;;;;;0.10;0.10;;;16.80;99.90;;;;;;5021157;28;20217;-81
2023/07/22 00:27:35;;;;;;;0.10;0.10;;;16.60;99.90;;;;;;5030854;28;20732;-81
2023/07/22 00:30:01;;;;;;;0.10;0.10;;;16.40;99.90;;;;;;5022357;28;20281;-81
2023/07/22 00:32:26;;;;;;;0.10;0.10;;;16.30;99.90;;;;;;5021926;28;20210;-81
2023/07/22 00:34:52;;;;;;;0.10;0.10;;;16.20;99.90;;;;;;5020920;28;20233;-81
2023/07/22 00:37:18;;;;;;;0.10;0.10;;;16.10;99.90;;;;;;5021315;28;20193;-81
2023/07/22 00:39:43;;;;;;;0.10;0.10;;;15.90;99.90;;;;;;5019736;28;20182;-80
2023/07/22 00:42:09;;;;;;;0.10;0.10;;;15.80;99.90;;;;;;5019850;28;20238;-81
2023/07/22 00:44:34;;;;;;;0.10;0.10;;;15.70;99.90;;;;;;5022964;28;20632;-80
2023/07/22 00:47:01;;;;;;;0.10;0.10;;;15.60;99.90;;;;;;5022021;28;20900;-81
2023/07/22 00:49:29;;;;;;;0.10;0.10;;;15.50;99.90;;;;;;5019881;28;20190;-81
2023/07/22 00:52:00;;;;;;;0.10;0.10;;;15.50;99.90;;;;;;5018100;28;20272;-81
2023/07/22 00:54:25;;;;;;;0.10;0.10;;;15.50;99.90;;;;;;5022865;28;20261;-81
2023/07/22 00:56:52;;;;;;;0.10;0.10;;;15.40;99.90;;;;;;5020989;28;20663;-81
2023/07/22 00:59:18;;;;;;;0.10;0.10;;;15.40;99.90;;;;;;5021634;28;20292;-81
2023/07/22 01:01:43;;;;;;;0.10;0.10;;;15.30;99.90;;;;;;5020727;28;20202;-81
2023/07/22 01:04:09;;;;;;;0.10;0.10;;;15.40;99.90;;;;;;5022287;28;20182;-81
2023/07/22 01:06:35;;;;;;;0.10;0.10;;;15.50;99.90;;;;;;5020352;28;20209;-80
2023/07/22 01:09:00;;;;;;;0.10;0.10;;;15.60;99.90;;;;;;5019850;28;20205;-81
2023/07/22 01:11:26;;;;;;;0.10;0.10;;;15.80;99.90;;;;;;5019377;28;20226;-80
2023/07/22 01:13:57;;;;;;;0.10;0.10;;;15.70;99.90;;;;;;5023835;28;20655;-81
2023/07/22 01:16:24;;;;;;;0.10;0.10;;;15.70;99.90;;;;;;5023760;28;20240;-81
2023/07/22 01:18:49;;;;;;;0.10;0.10;;;15.80;99.90;;;;;;5028178;28;20968;-81
2023/07/22 01:21:16;;;;;;;0.10;0.10;;;15.90;99.90;;;;;;5026596;28;20244;-81
2023/07/22 01:23:42;;;;;;;0.10;0.10;;;16.00;99.90;;;;;;5025390;28;20206;-80
2023/07/22 01:26:08;;;;;;;0.10;0.10;;;16.00;99.90;;;;;;5024686;28;20190;-80
2023/07/22 01:28:35;;;;;;;0.10;0.10;;;16.00;99.90;;;;;;5027628;28;20533;-81
2023/07/22 01:31:01;;;;;;;0.10;0.10;;;15.80;99.90;;;;;;5026516;28;20237;-81
2023/07/22 01:33:27;;;;;;;0.10;0.10;;;15.70;99.90;;;;;;5028049;28;20183;-81
2023/07/22 01:35:53;;;;;;;0.10;0.10;;;15.70;99.90;;;;;;5022828;28;20186;-81
2023/07/22 01:38:19;;;;;;;0.10;0.10;;;15.70;99.90;;;;;;5024508;28;20190;-81
2023/07/22 01:40:44;;;;;;;0.10;0.10;;;15.70;99.90;;;;;;5023721;28;20189;-81
2023/07/22 01:43:10;;;;;;;0.10;0.10;;;15.90;99.90;;;;;;5032660;28;20981;-81
2023/07/22 01:45:37;;;;;;;0.10;0.10;;;15.90;99.90;;;;;;5027138;28;20186;-81
2023/07/22 01:48:03;;;;;;;0.10;0.10;;;15.90;99.90;;;;;;5023498;28;20198;-81
2023/07/22 01:50:28;;;;;;;0.10;0.10;;;15.90;99.90;;;;;;5022895;28;20202;-81
2023/07/22 01:52:55;;;;;;;0.10;0.10;;;15.90;99.90;;;;;;5024228;28;20207;-80
2023/07/22 01:55:20;;;;;;;0.10;0.10;;;15.80;99.90;;;;;;5022644;28;20269;-81
2023/07/22 01:57:46;;;;;;;0.10;0.10;;;15.90;99.90;;;;;;5023241;28;20285;-81
2023/07/22 02:00:12;;;;;;;0.10;0.10;;;15.90;99.90;;;;;;5025035;28;20312;-81
2023/07/22 02:02:37;;;;;;;0.10;0.10;;;15.90;99.90;;;;;;5025352;28;20222;-81
2023/07/22 02:05:03;;;;;;;0.10;0.10;;;15.80;99.90;;;;;;5023991;28;20190;-81
2023/07/22 02:07:29;;;;;;;0.10;0.10;;;15.70;99.90;;;;;;5024379;28;20182;-81
2023/07/22 02:09:55;;;;;;;0.10;0.10;;;15.70;99.90;;;;;;5025618;28;20236;-81
2023/07/22 02:12:20;;;;;;;0.10;0.10;;;15.60;99.90;;;;;;5023018;28;20211;-80
2023/07/22 02:14:46;;;;;;;0.10;0.10;;;15.70;99.90;;;;;;5024345;28;20218;-81
2023/07/22 02:17:11;;;;;;;0.10;0.10;;;15.70;99.90;;;;;;5025706;28;20591;-81
2023/07/22 02:19:37;;;;;;;0.10;0.10;;;15.70;99.90;;;;;;5022395;28;20193;-81
2023/07/22 02:22:04;;;;;;;0.10;0.10;;;15.70;99.90;;;;;;5022655;28;20217;-81
2023/07/22 02:24:30;;;;;;;0.10;0.10;;;15.70;99.90;;;;;;5023476;28;20183;-81
2023/07/22 02:26:55;;;;;;;0.10;0.10;;;15.70;99.90;;;;;;5023369;28;20683;-81
2023/07/22 02:29:21;;;;;;;0.10;0.10;;;15.70;99.90;;;;;;5025104;28;20316;-81
2023/07/22 02:31:46;;;;;;;0.10;0.10;;;15.60;99.90;;;;;;5025871;28;20217;-81
2023/07/22 02:34:12;;;;;;;0.10;0.10;;;15.50;99.90;;;;;;5023638;28;20178;-81
2023/07/22 02:36:37;;;;;;;0.20;0.20;;;15.40;99.90;;;;;;5021295;28;20194;-81
2023/07/22 02:39:03;;;;;;;0.10;0.10;;;15.20;99.90;;;;;;5023634;28;20210;-81
2023/07/22 02:41:29;;;;;;;0.10;0.10;;;15.10;99.90;;;;;;5020096;28;20233;-81
2023/07/22 02:43:54;;;;;;;0.10;0.10;;;15.00;99.90;;;;;;5024689;28;20189;-81
2023/07/22 02:46:20;;;;;;;0.10;0.10;;;15.00;99.90;;;;;;5024489;28;20201;-81
2023/07/22 02:48:45;;;;;;;0.10;0.10;;;15.10;99.90;;;;;;5025673;28;20534;-81
2023/07/22 02:51:11;;;;;;;0.10;0.10;;;15.20;99.90;;;;;;5019620;28;20271;-81
2023/07/22 02:53:37;;;;;;;0.10;0.10;;;15.20;99.90;;;;;;5021861;28;20178;-81
2023/07/22 02:56:03;;;;;;;0.10;0.10;;;15.20;99.90;;;;;;5020360;28;20243;-81
2023/07/22 02:58:29;;;;;;;0.10;0.10;;;15.20;99.90;;;;;;5022480;28;20190;-81
2023/07/22 03:00:55;;;;;;;0.10;0.10;;;15.10;99.90;;;;;;5022113;28;20193;-81
2023/07/22 03:03:21;;;;;;;0.10;0.10;;;15.00;99.90;;;;;;5025179;28;20205;-81
2023/07/22 03:05:47;;;;;;;0.10;0.10;;;14.90;99.90;;;;;;5020835;28;20210;-81
2023/07/22 03:08:13;;;;;;;0.10;0.10;;;14.70;99.90;;;;;;5024181;28;20217;-81
2023/07/22 03:10:38;;;;;;;0.10;0.10;;;14.50;99.90;;;;;;5023065;28;20237;-81
2023/07/22 03:13:04;;;;;;;0.10;0.10;;;14.30;99.90;;;;;;5021636;28;20223;-81
2023/07/22 03:15:30;;;;;;;0.10;0.10;;;14.10;99.90;;;;;;5021511;28;20201;-81
2023/07/22 03:17:56;;;;;;;0.10;0.10;;;14.10;99.90;;;;;;5024813;28;20212;-81
2023/07/22 03:20:25;;;;;;;0.10;0.10;;;14.00;99.90;;;;;;5021665;28;20224;-81
2023/07/22 03:22:51;;;;;;;0.10;0.10;;;14.00;99.90;;;;;;5023608;28;20706;-81
2023/07/22 03:25:17;;;;;;;0.07;0.07;;;13.90;99.90;;;;;;5023619;28;20189;-81
2023/07/22 03:27:44;;;;;;;0.10;0.10;;;13.70;99.90;;;;;;5022115;28;20184;-81
2023/07/22 03:30:14;;;;;;;0.10;0.10;;;13.70;99.90;;;;;;5024675;28;20192;-80
2023/07/22 03:32:44;;;;;;;0.03;0.03;;;13.50;99.90;;;;;;5021000;28;20715;-81
2023/07/22 03:35:10;;;;;;;0.10;0.10;;;13.50;99.90;;;;;;5020593;28;20216;-81
2023/07/22 03:37:36;;;;;;;0.10;0.10;;;13.50;99.90;;;;;;5022705;28;20192;-81
2023/07/22 03:40:07;;;;;;;0.10;0.10;;;13.40;99.90;;;;;;5022943;28;20194;-80
2023/07/22 03:42:34;;;;;;;0.10;0.10;;;13.40;99.90;;;;;;5020352;28;20214;-80
2023/07/22 03:44:59;;;;;;;0.10;0.10;;;13.30;99.90;;;;;;5022086;28;20180;-81
2023/07/22 03:47:25;;;;;;;0.10;0.10;;;13.30;99.90;;;;;;5023115;28;20189;-81
2023/07/22 03:49:50;;;;;;;0.10;0.10;;;13.30;99.90;;;;;;5019165;28;20562;-81
2023/07/22 03:52:18;;;;;;;0.10;0.10;;;13.40;99.90;;;;;;5015976;28;20229;-81
2023/07/22 03:54:44;;;;;;;0.10;0.10;;;13.40;99.90;;;;;;5022117;28;20259;-81
2023/07/22 03:57:09;;;;;;;0.10;0.10;;;13.40;99.90;;;;;;5021026;28;20215;-81
2023/07/22 03:59:35;;;;;;;0.10;0.10;;;13.60;99.90;;;;;;5022278;28;20263;-81
2023/07/22 04:02:01;;;;;;;0.10;0.10;;;13.90;99.90;;;;;;5020731;28;21285;-81
2023/07/22 04:04:27;;;;;;;0.10;0.10;;;14.20;99.90;;;;;;5020587;28;20188;-81
2023/07/22 04:06:52;;;;;;;0.10;0.10;;;14.40;99.90;;;;;;5017432;28;20212;-80
2023/07/22 04:09:18;;;;;;;0.10;0.10;;;14.70;99.90;;;;;;5021576;28;20192;-81
2023/07/22 04:11:43;;;;;;;0.10;0.10;;;14.90;99.90;;;;;;5018950;28;20222;-81
2023/07/22 04:14:09;;;;;;;0.10;0.10;;;15.30;99.90;;;;;;5020954;28;20188;-81
2023/07/22 04:16:34;;;;;;;0.10;0.10;;;15.50;99.90;;;;;;5022444;28;20181;-81
2023/07/22 04:19:00;;;;;;;0.10;0.10;;;15.70;99.90;;;;;;5013967;28;20196;-81
2023/07/22 04:21:25;;;;;;;0.10;0.10;;;15.90;99.90;;;;;;5016857;28;20208;-81
2023/07/22 04:23:51;;;;;;;0.10;0.10;;;15.60;99.90;;;;;;5016263;28;20190;-81
2023/07/22 04:26:16;;;;;;;0.10;0.10;;;15.30;99.90;;;;;;5017073;28;20190;-81
2023/07/22 04:28:42;;;;;;;0.10;0.10;;;15.30;99.90;;;;;;5018412;28;20228;-80
2023/07/22 04:31:09;;;;;;;0.00;0.00;;;15.20;99.90;;;;;;5015800;28;20214;-81
2023/07/22 04:33:34;;;;;;;0.10;0.10;;;15.20;99.90;;;;;;5018920;28;20185;-80
2023/07/22 04:36:00;;;;;;;0.10;0.10;;;15.10;99.90;;;;;;5019664;28;20217;-81
2023/07/22 04:38:26;;;;;;;0.10;0.10;;;15.00;99.90;;;;;;5019148;28;20185;-80
2023/07/22 04:40:52;;;;;;;0.10;0.10;;;14.90;99.90;;;;;;5016596;28;20283;-80
2023/07/22 04:43:17;;;;;;;0.10;0.10;;;14.80;99.90;;;;;;5018994;28;20188;-80
2023/07/22 04:45:49;;;;;;;0.10;0.10;;;14.80;99.90;;;;;;5018957;28;20202;-81
2023/07/22 04:48:16;;;;;;;0.10;0.10;;;14.80;99.90;;;;;;5018933;28;20192;-81
2023/07/22 04:50:44;;;;;;;0.10;0.10;;;14.70;99.90;;;;;;5017419;28;20212;-81
2023/07/22 04:53:12;;;;;;;0.10;0.10;;;14.70;99.90;;;;;;5017414;28;20272;-81
2023/07/22 04:55:38;;;;;;;0.10;0.10;;;14.70;99.90;;;;;;5025320;28;20186;-81
2023/07/22 04:58:04;;;;;;;0.10;0.10;;;14.70;99.90;;;;;;5020703;28;20181;-81
2023/07/22 05:00:29;;;;;;;0.10;0.10;;;14.60;99.90;;;;;;5020062;28;20193;-81
2023/07/22 05:02:56;;;;;;;0.10;0.10;;;14.70;99.90;;;;;;5019799;28;20277;-81
2023/07/22 05:05:21;;;;;;;0.10;0.10;;;14.70;99.90;;;;;;5018383;28;20209;-81
2023/07/22 05:07:49;;;;;;;0.10;0.10;;;14.80;99.90;;;;;;5029590;28;20196;-81
2023/07/22 05:10:15;;;;;;;0.10;0.10;;;14.80;99.90;;;;;;5020507;28;20193;-81
2023/07/22 05:12:42;;;;;;;0.10;0.10;;;15.00;99.90;;;;;;5020940;28;20201;-81
2023/07/22 05:15:09;;;;;;;0.10;0.10;;;15.20;99.90;;;;;;5019070;28;20575;-81
2023/07/22 05:17:35;;;;;;;0.10;0.10;;;15.30;99.90;;;;;;5020674;28;20189;-80
2023/07/22 05:20:00;;;;;;;0.10;0.10;;;15.30;99.90;;;;;;5020920;28;20652;-81
2023/07/22 05:22:26;;;;;;;0.10;0.10;;;15.30;99.90;;;;;;5020128;28;20206;-81
2023/07/22 05:24:51;;;;;;;0.10;0.10;;;15.30;99.90;;;;;;5023406;28;20190;-81
2023/07/22 05:27:17;;;;;;;0.10;0.10;;;15.30;99.90;;;;;;5018082;28;20234;-80
2023/07/22 05:29:43;;;;;;;0.10;0.10;;;15.50;99.90;;;;;;5017068;28;20186;-81
2023/07/22 05:32:09;;;;;;;0.10;0.10;;;15.50;99.90;;;;;;5019202;28;21525;-81
2023/07/22 05:34:35;;;;;;;0.10;0.10;;;15.40;99.90;;;;;;5017566;28;20240;-80
2023/07/22 05:37:00;;;;;;;0.10;0.10;;;15.50;99.90;;;;;;5019526;28;20193;-84
2023/07/22 05:39:26;;;;;;;0.10;0.10;;;15.60;99.90;;;;;;5017665;28;20881;-85
2023/07/22 05:41:51;;;;;;;0.10;0.10;;;15.70;99.90;;;;;;5019483;28;20221;-85
2023/07/22 05:44:17;;;;;;;0.10;0.10;;;15.70;99.90;;;;;;5020497;28;20199;-84
2023/07/22 05:46:42;;;;;;;0.10;0.10;;;15.70;99.90;;;;;;5018566;28;20218;-84
2023/07/22 05:49:09;;;;;;;0.10;0.10;;;15.90;99.90;;;;;;5018214;28;21024;-84
2023/07/22 05:51:34;;;;;;;0.10;0.10;;;16.10;99.90;;;;;;5012263;28;20274;-84
2023/07/22 05:54:00;;;;;;;0.10;0.10;;;16.20;99.90;;;;;;5012888;28;20191;-84
2023/07/22 05:56:25;;;;;;;0.10;0.10;;;16.60;99.90;;;;;;5017499;28;20193;-84
2023/07/22 05:58:51;;;;;;;0.10;0.10;;;16.50;99.90;;;;;;5016340;28;20305;-84
2023/07/22 06:01:17;;;;;;;0.10;0.10;;;16.60;99.90;;;;;;5018578;28;20273;-84
2023/07/22 06:03:43;;;;;;;0.10;0.10;;;16.80;99.90;;;;;;5021424;28;20182;-84
2023/07/22 06:06:09;;;;;;;0.10;0.10;;;17.00;99.90;;;;;;5026468;28;20206;-81
2023/07/22 06:08:35;;;;;;;0.10;0.10;;;17.10;99.90;;;;;;5024471;28;20220;-82
2023/07/22 06:11:00;;;;;;;0.10;0.10;;;17.40;99.90;;;;;;5023028;28;21241;-83
2023/07/22 06:13:26;;;;;;;0.10;0.10;;;18.00;99.90;;;;;;5020767;28;20213;-82
2023/07/22 06:15:52;;;;;;;0.10;0.10;;;18.50;99.90;;;;;;5020093;28;20183;-82
2023/07/22 06:18:18;;;;;;;0.10;0.10;;;18.80;99.90;;;;;;5023794;28;20191;-82
2023/07/22 06:20:44;;;;;;;0.10;0.10;;;19.20;99.90;;;;;;5023598;28;20245;-82
2023/07/22 06:23:10;;;;;;;0.10;0.10;;;19.50;99.90;;;;;;5024186;28;20233;-82
2023/07/22 06:25:35;;;;;;;0.10;0.10;;;19.70;99.90;;;;;;5022677;28;21176;-81
2023/07/22 06:28:01;;;;;;;0.10;0.10;;;20.00;99.90;;;;;;5024103;28;20193;-81
2023/07/22 06:30:27;;;;;;;0.10;0.10;;;20.10;99.90;;;;;;5021667;28;20208;-82
2023/07/22 06:32:52;;;;;;;0.10;0.10;;;20.30;99.90;;;;;;5018393;28;20216;-83
2023/07/22 06:35:18;;;;;;;0.10;0.10;;;20.50;99.90;;;;;;5022174;28;20584;-82
2023/07/22 06:37:44;;;;;;;0.10;0.10;;;20.60;99.90;;;;;;5022092;28;20194;-82
2023/07/22 06:40:10;;;;;;;0.10;0.10;;;20.60;99.90;;;;;;5022879;28;20186;-82
2023/07/22 06:42:36;;;;;;;0.10;0.10;;;20.60;99.90;;;;;;5020887;28;20268;-82
2023/07/22 06:45:02;;;;;;;0.10;0.10;;;20.50;99.90;;;;;;5022006;28;20187;-82
2023/07/22 06:47:28;;;;;;;0.10;0.10;;;20.50;99.90;;;;;;5018970;28;20194;-82
2023/07/22 06:49:53;;;;;;;0.10;0.10;;;20.50;99.90;;;;;;5014827;28;20191;-82
2023/07/22 06:52:19;;;;;;;0.10;0.10;;;20.50;99.90;;;;;;5020962;28;20246;-82
2023/07/22 06:54:44;;;;;;;0.10;0.10;;;20.30;99.90;;;;;;5023417;28;20195;-82
2023/07/22 06:57:10;;;;;;;0.10;0.10;;;20.20;99.90;;;;;;5024496;28;20269;-82
2023/07/22 06:59:35;;;;;;;0.10;0.10;;;20.10;99.90;;;;;;5022276;28;20289;-82
2023/07/22 07:02:02;;;;;;;0.10;0.10;;;20.30;99.90;;;;;;5016169;28;20276;-81
2023/07/22 07:04:28;;;;;;;0.10;0.10;;;20.30;99.90;;;;;;5019108;28;20189;-81
2023/07/22 07:06:54;;;;;;;0.10;0.10;;;20.30;99.90;;;;;;5020676;28;20207;-81
2023/07/22 07:09:19;;;;;;;0.10;0.10;;;20.20;99.90;;;;;;5022267;28;20218;-81
2023/07/22 07:11:45;;;;;;;0.10;0.10;;;20.30;99.90;;;;;;5021257;28;20214;-81
2023/07/22 07:14:10;;;;;;;0.10;0.10;;;20.30;99.90;;;;;;5019866;28;20182;-81
2023/07/22 07:16:36;;;;;;;0.10;0.10;;;20.60;99.90;;;;;;5022205;28;20245;-81
2023/07/22 07:19:02;;;;;;;0.10;0.10;;;20.70;99.90;;;;;;5018568;28;20186;-81
2023/07/22 07:21:28;;;;;;;0.10;0.10;;;20.70;99.90;;;;;;5022905;28;20704;-81
2023/07/22 07:23:54;;;;;;;0.10;0.10;;;20.60;99.90;;;;;;5021809;28;20187;-81
2023/07/22 07:26:21;;;;;;;0.10;0.10;;;20.60;99.90;;;;;;5020487;28;20187;-82
2023/07/22 07:28:47;;;;;;;0.10;0.10;;;20.80;99.90;;;;;;5017325;28;20196;-81
2023/07/22 07:31:13;;;;;;;0.10;0.10;;;20.80;99.90;;;;;;5019324;28;21107;-81
2023/07/22 07:33:39;;;;;;;0.10;0.10;;;20.90;99.90;;;;;;5017983;28;20183;-80
2023/07/22 07:36:04;;;;;;;0.10;0.10;;;21.00;99.90;;;;;;5021459;28;20203;-81
2023/07/22 07:38:31;;;;;;;1.90;1.80;;;21.20;99.90;;;;;;5010153;28;20179;-81
2023/07/22 07:40:58;;;;;;;0.10;0.10;;;21.50;99.90;;;;;;4999210;28;20190;-81
2023/07/22 07:43:24;;;;;;;0.10;0.10;;;21.80;99.90;;;;;;5023297;28;20182;-81
2023/07/22 07:45:50;;;;;;;0.10;0.10;;;22.00;99.90;;;;;;5018541;28;21281;-80
2023/07/22 07:48:16;;;;;;;0.10;0.10;;;22.10;99.90;;;;;;5015033;28;20228;-81
2023/07/22 07:50:42;;;;;;;0.10;0.10;;;22.10;99.90;;;;;;5014885;28;20218;-81
2023/07/22 07:53:08;;;;;;;0.10;0.10;;;22.10;99.90;;;;;;5020982;28;20250;-81
2023/07/22 07:55:33;;;;;;;0.10;0.10;;;22.60;99.90;;;;;;5023932;28;20263;-82
2023/07/22 07:57:59;;;;;;;0.10;0.10;;;23.00;99.90;;;;;;5021615;28;20193;-81
2023/07/22 08:00:25;;;;;;;0.10;0.10;;;23.30;99.90;;;;;;5027368;28;20544;-81
2023/07/22 08:02:50;;;;;;;0.10;0.10;;;23.50;99.90;;;;;;5026674;28;20795;-81
2023/07/22 08:05:16;;;;;;;0.10;0.10;;;23.90;99.90;;;;;;5022588;28;21216;-81
2023/07/22 08:07:41;;;;;;;0.10;0.10;;;24.30;99.90;;;;;;5021611;28;20182;-81
2023/07/22 08:10:07;;;;;;;0.10;0.10;;;24.50;99.90;;;;;;5023827;28;20273;-81
2023/07/22 08:12:34;;;;;;;0.10;0.10;;;24.60;99.90;;;;;;5016240;28;20326;-80
2023/07/22 08:14:59;;;;;;;0.10;0.10;;;24.70;99.90;;;;;;5013746;28;20273;-81
2023/07/22 08:17:25;;;;;;;0.10;0.10;;;24.90;99.90;;;;;;5020582;28;21169;-81
2023/07/22 08:19:52;;;;;;;0.10;0.10;;;25.10;99.90;;;;;;5022628;28;20198;-81
2023/07/22 08:22:18;;;;;;;0.10;0.10;;;24.90;99.90;;;;;;5016379;28;20206;-81
2023/07/22 08:24:43;;;;;;;0.10;0.10;;;24.60;99.90;;;;;;5018384;28;20190;-81
2023/07/22 08:27:09;;;;;;;0.10;0.10;;;24.60;99.90;;;;;;5016129;28;20197;-83
2023/07/22 08:29:36;;;;;;;0.10;0.10;;;24.60;99.90;;;;;;5016571;28;20190;-82
2023/07/22 08:32:02;;;;;;;0.10;0.10;;;24.60;99.90;;;;;;5018363;28;20567;-81
2023/07/22 08:34:27;;;;;;;0.10;0.10;;;24.90;99.90;;;;;;5017890;28;20202;-81
2023/07/22 08:36:53;;;;;;;0.10;0.10;;;24.60;99.90;;;;;;5017183;28;20195;-81
2023/07/22 08:39:18;;;;;;;0.10;0.10;;;24.50;99.90;;;;;;5022125;28;20209;-81
2023/07/22 08:41:51;;;;;;;0.10;0.10;;;24.40;99.90;;;;;;5016579;28;20229;-81
2023/07/22 08:44:20;;;;;;;0.10;0.10;;;24.50;99.90;;;;;;5036729;28;20211;-81
2023/07/22 08:46:49;;;;;;;0.10;0.10;;;24.20;99.90;;;;;;5017747;28;20182;-80
2023/07/22 08:49:15;;;;;;;0.10;0.10;;;24.10;99.90;;;;;;5018799;28;20273;-80
2023/07/22 08:51:41;;;;;;;0.10;0.10;;;24.00;99.90;;;;;;5015240;28;20237;-80
2023/07/22 08:54:08;;;;;;;0.10;0.10;;;24.10;99.90;;;;;;5022019;28;20190;-81
2023/07/22 08:56:34;;;;;;;0.10;0.10;;;24.20;99.90;;;;;;5018085;28;20265;-80
2023/07/22 08:59:01;;;;;;;0.10;0.10;;;24.50;99.90;;;;;;5018698;28;20203;-81
2023/07/22 09:01:27;;;;;;;0.10;0.10;;;24.60;99.90;;;;;;5017397;28;20242;-81
2023/07/22 09:03:54;;;;;;;0.10;0.10;;;24.80;99.90;;;;;;5020085;28;20213;-81
2023/07/22 09:06:19;;;;;;;0.10;0.10;;;25.10;99.90;;;;;;5020220;28;20213;-80
2023/07/22 09:08:46;;;;;;;0.10;0.10;;;25.30;99.90;;;;;;5016204;28;20225;-81
2023/07/22 09:11:12;;;;;;;0.10;0.10;;;25.20;99.90;;;;;;5014408;28;20617;-81
2023/07/22 09:13:40;;;;;;;0.10;0.10;;;25.30;99.90;;;;;;5022192;28;20198;-81
2023/07/22 09:16:06;;;;;;;0.10;0.10;;;25.30;99.90;;;;;;5019089;28;20218;-80
2023/07/22 09:18:35;;;;;;;0.10;0.10;;;25.40;99.90;;;;;;5024423;28;20190;-81
2023/07/22 09:21:01;;;;;;;0.10;0.10;;;25.20;99.90;;;;;;5029233;28;20427;-80
2023/07/22 09:23:37;;;;;;;0.10;0.10;;;25.30;99.90;;;;;;5019320;28;20230;-81
2023/07/22 09:26:14;;;;;;;0.10;0.10;;;25.50;99.90;;;;;;5017488;28;20652;-83
2023/07/22 09:28:50;;;;;;;0.10;0.10;;;25.30;99.90;;;;;;5018038;28;20201;-83
2023/07/22 09:31:16;;;;;;;0.10;0.10;;;25.20;99.90;;;;;;5016581;28;20217;-80
2023/07/22 09:33:42;;;;;;;0.10;0.10;;;24.90;99.90;;;;;;5011594;28;20191;-80
2023/07/22 09:36:10;;;;;;;0.10;0.10;;;24.80;99.90;;;;;;5019310;28;20211;-80
2023/07/22 09:38:35;;;;;;;0.20;0.20;;;24.90;99.90;;;;;;5022987;28;20189;-81
2023/07/22 09:41:01;;;;;;;0.10;0.10;;;25.00;99.90;;;;;;5022350;28;20190;-81
2023/07/22 09:43:26;;;;;;;0.10;0.10;;;24.90;99.90;;;;;;5021988;28;20178;-81
2023/07/22 09:45:53;;;;;;;0.10;0.10;;;24.90;99.90;;;;;;5020307;28;20182;-81
2023/07/22 09:48:21;;;;;;;0.10;0.10;;;25.30;99.90;;;;;;5019439;28;20187;-81
2023/07/22 09:50:56;;;;;;;0.10;0.10;;;25.50;99.90;;;;;;5024191;28;20255;-81
2023/07/22 09:53:21;;;;;;;0.10;0.10;;;25.70;99.90;;;;;;5018155;28;20209;-81
2023/07/22 09:55:47;;;;;;;0.10;0.10;;;25.90;99.90;;;;;;5016678;28;20186;-81
2023/07/22 09:58:14;;;;;;;0.10;0.10;;;26.00;99.90;;;;;;5021649;28;20595;-80
2023/07/22 10:00:44;;;;;;;0.10;0.10;;;25.90;99.90;;;;;;5021167;28;21218;-81
2023/07/22 10:03:11;;;;;;;0.10;0.10;;;26.30;99.90;;;;;;5021349;28;20225;-81
2023/07/22 10:05:38;;;;;;;0.10;0.10;;;26.60;99.90;;;;;;5019963;28;20202;-81
2023/07/22 10:08:06;;;;;;;0.10;0.10;;;26.80;99.90;;;;;;5022720;28;20191;-81
2023/07/22 10:10:34;;;;;;;0.10;0.10;;;27.10;99.90;;;;;;5019651;28;20195;-81
2023/07/22 10:13:00;;;;;;;0.10;0.10;;;27.20;99.90;;;;;;5022423;28;20279;-81
2023/07/22 10:15:29;;;;;;;0.10;0.10;;;27.20;99.90;;;;;;5022959;28;20186;-81
2023/07/22 10:17:56;;;;;;;0.10;0.10;;;27.20;99.90;;;;;;5015793;28;20660;-82
2023/07/22 10:20:23;;;;;;;0.10;0.10;;;27.10;99.90;;;;;;5022426;28;20195;-81
2023/07/22 10:22:49;;;;;;;0.10;0.10;;;26.80;99.90;;;;;;5018617;28;20214;-81
2023/07/22 10:25:16;;;;;;;0.10;0.10;;;26.40;99.90;;;;;;5020341;28;20285;-81
2023/07/22 10:27:43;;;;;;;0.10;0.10;;;26.70;99.90;;;;;;5022878;28;20187;-81
2023/07/22 10:30:10;;;;;;;0.10;0.10;;;27.00;99.90;;;;;;5024181;28;20194;-80
2023/07/22 10:32:38;;;;;;;0.10;0.10;;;27.10;99.90;;;;;;5019589;28;20214;-81
2023/07/22 10:35:08;;;;;;;0.10;0.10;;;27.00;99.90;;;;;;5021025;28;20543;-81
2023/07/22 10:37:34;;;;;;;0.10;0.10;;;26.50;99.90;;;;;;5025387;28;20175;-81
2023/07/22 10:40:26;;;;;;;0.10;0.10;;;26.20;99.90;;;;;;5021749;28;20910;-83
2023/07/22 10:42:59;;;;;;;0.10;0.10;;;25.60;99.90;;;;;;5021973;28;20218;-82
2023/07/22 10:45:30;;;;;;;0.10;0.10;;;25.70;99.90;;;;;;5020388;28;20206;-81
2023/07/22 10:48:10;;;;;;;0.10;0.10;;;25.80;99.90;;;;;;5020660;28;21265;-81
2023/07/22 10:50:49;;;;;;;0.10;0.10;;;25.40;99.90;;;;;;5022073;28;20562;-80
2023/07/22 10:53:24;;;;;;;0.10;0.10;;;25.20;99.90;;;;;;5024399;28;20209;-81
2023/07/22 10:56:24;;;;;;;0.10;0.10;;;25.10;99.90;;;;;;5026719;28;20212;-80
2023/07/22 10:58:50;;;;;;;0.10;0.10;;;25.00;99.90;;;;;;5033072;28;20307;-81
2023/07/22 11:01:28;;;;;;;0.10;0.10;;;25.00;99.90;;;;;;5022783;28;20253;-81
2023/07/22 11:04:15;;;;;;;0.10;0.10;;;24.90;99.90;;;;;;5024473;28;20197;-81
2023/07/22 11:06:43;;;;;;;0.10;0.10;;;24.90;99.90;;;;;;5021032;28;20230;-81
2023/07/22 11:09:29;;;;;;;0.10;0.10;;;24.80;99.90;;;;;;5024298;28;20252;-81
2023/07/22 11:11:58;;;;;;;0.10;0.10;;;24.80;99.90;;;;;;5022770;28;20214;-81
2023/07/22 11:14:26;;;;;;;0.10;0.10;;;24.80;99.90;;;;;;5021109;28;20656;-81
2023/07/22 11:16:52;;;;;;;0.10;0.10;;;24.90;99.90;;;;;;5025332;28;20244;-81
2023/07/22 11:19:19;;;;;;;0.10;0.10;;;25.00;99.90;;;;;;5022756;28;20183;-81
2023/07/22 11:21:46;;;;;;;0.10;0.10;;;25.20;99.90;;;;;;5024522;28;20217;-81
2023/07/22 11:24:12;;;;;;;0.10;0.10;;;25.40;99.90;;;;;;5019980;28;20236;-81
2023/07/22 11:26:39;;;;;;;0.10;0.10;;;26.00;99.90;;;;;;5020978;28;20190;-81
2023/07/22 11:29:06;;;;;;;0.10;0.10;;;26.00;99.90;;;;;;5015764;28;21299;-82
2023/07/22 11:31:42;;;;;;;0.10;0.10;;;26.40;99.90;;;;;;5017860;28;20301;-82
2023/07/22 11:34:18;;;;;;;0.10;0.10;;;26.50;99.90;;;;;;5019507;28;20506;-82
2023/07/22 11:36:45;;;;;;;0.10;0.10;;;26.50;99.90;;;;;;5019308;28;20197;-81
2023/07/22 11:39:13;;;;;;;0.10;0.10;;;26.40;99.90;;;;;;5016264;28;20715;-81
2023/07/22 11:41:41;;;;;;;0.10;0.10;;;26.50;99.90;;;;;;5019448;28;20211;-81
2023/07/22 11:44:12;;;;;;;0.10;0.10;;;26.50;99.90;;;;;;5021023;28;20267;-81
2023/07/22 11:47:03;;;;;;;0.10;0.10;;;26.50;99.90;;;;;;5020470;28;20209;-81
2023/07/22 11:49:46;;;;;;;0.10;0.10;;;26.40;99.90;;;;;;5019756;28;20620;-81
2023/07/22 11:52:19;;;;;;;0.10;0.10;;;26.60;99.90;;;;;;5018649;28;20268;-81
2023/07/22 11:54:46;;;;;;;0.10;0.10;;;26.70;99.90;;;;;;5018336;28;20226;-80
2023/07/22 11:57:23;;;;;;;0.10;0.10;;;26.80;99.90;;;;;;5020794;28;20265;-80
2023/07/22 11:59:51;;;;;;;0.10;0.10;;;27.10;99.90;;;;;;5024184;28;20232;-80
2023/07/22 12:02:21;;;;;;;0.10;0.10;;;27.30;99.90;;;;;;5018860;28;20225;-81
2023/07/22 12:04:55;;;;;;;0.10;0.10;;;27.50;99.90;;;;;;5020820;28;20186;-81
2023/07/22 12:07:26;;;;;;;0.10;0.10;;;27.40;99.90;;;;;;5022284;28;20212;-81
2023/07/22 12:09:53;;;;;;;0.10;0.10;;;27.40;99.90;;;;;;5022103;28;20207;-81
2023/07/22 12:12:19;;;;;;;0.10;0.10;;;27.30;99.90;;;;;;5019202;28;20214;-80
2023/07/22 12:14:44;;;;;;;0.10;0.10;;;27.40;99.90;;;;;;5024508;28;20974;-80
2023/07/22 12:17:10;;;;;;;0.10;0.10;;;27.20;99.90;;;;;;5019961;28;20183;-81
2023/07/22 12:19:36;;;;;;;0.10;0.10;;;27.30;99.90;;;;;;5023437;28;20187;-81
2023/07/22 12:22:02;;;;;;;0.10;0.10;;;27.60;99.90;;;;;;5021804;28;20295;-80
2023/07/22 12:24:28;;;;;;;0.10;0.10;;;27.60;99.90;;;;;;5022177;28;20225;-80
2023/07/22 12:26:54;;;;;;;0.10;0.10;;;27.30;99.90;;;;;;5022771;28;20202;-80
2023/07/22 12:29:19;;;;;;;0.10;0.10;;;26.90;99.90;;;;;;5024033;28;20686;-80
2023/07/22 12:31:45;;;;;;;0.10;0.10;;;26.70;99.90;;;;;;5020301;28;20899;-80
2023/07/22 12:34:11;;;;;;;0.30;0.30;;;26.60;99.90;;;;;;5025163;28;20251;-80
2023/07/22 12:36:36;;;;;;;0.10;0.10;;;26.50;99.90;;;;;;5021966;28;20547;-80
2023/07/22 12:39:02;;;;;;;0.10;0.10;;;26.80;99.90;;;;;;5022162;28;20199;-81
2023/07/22 12:41:28;;;;;;;0.10;0.10;;;26.90;99.90;;;;;;5020720;28;20237;-80
2023/07/22 12:43:53;;;;;;;0.10;0.10;;;26.70;99.90;;;;;;5021506;28;20741;-81
2023/07/22 12:46:19;;;;;;;0.10;0.10;;;26.80;99.90;;;;;;5024581;28;20269;-80